sensor_id;sensor_type;location;lat;lon;timestamp;P1;durP1;ratioP1;P2;durP2;ratioP2
12048;SDS011;6085;49.452;8.502;2023-03-30T00:03:53;5.00;;;2.50;;
12048;SDS011;6085;49.452;8.502;2023-03-30T00:07:55;5.75;;;2.50;;
12048;SDS011;6085;49.452;8.502;2023-03-30T00:11:57;3.25;;;2.33;;
12048;SDS011;6085;49.452;8.502;2023-03-30T00:16:03;5.00;;;2.38;;
12048;SDS011;6085;49.452;8.502;2023-03-30T00:20:09;4.43;;;2.17;;
12048;SDS011;6085;49.452;8.502;2023-03-30T00:24:12;5.90;;;2.75;;
12048;SDS011;6085;49.452;8.502;2023-03-30T00:28:14;5.05;;;2.28;;
12048;SDS011;6085;49.452;8.502;2023-03-30T00:32:16;4.82;;;2.15;;
12048;SDS011;6085;49.452;8.502;2023-03-30T00:36:20;6.05;;;2.63;;
12048;SDS011;6085;49.452;8.502;2023-03-30T00:40:22;4.38;;;2.38;;
12048;SDS011;6085;49.452;8.502;2023-03-30T00:49:04;5.55;;;2.03;;
12048;SDS011;6085;49.452;8.502;2023-03-30T00:53:12;3.40;;;2.30;;
12048;SDS011;6085;49.452;8.502;2023-03-30T00:57:16;5.22;;;2.20;;
12048;SDS011;6085;49.452;8.502;2023-03-30T01:01:21;4.88;;;2.53;;
12048;SDS011;6085;49.452;8.502;2023-03-30T01:05:27;4.38;;;2.25;;
12048;SDS011;6085;49.452;8.502;2023-03-30T01:09:32;7.10;;;2.50;;
12048;SDS011;6085;49.452;8.502;2023-03-30T01:13:35;5.85;;;1.98;;
12048;SDS011;6085;49.452;8.502;2023-03-30T01:17:42;5.25;;;2.45;;
12048;SDS011;6085;49.452;8.502;2023-03-30T01:26:46;4.95;;;2.35;;
12048;SDS011;6085;49.452;8.502;2023-03-30T01:39:40;6.90;;;2.40;;
12048;SDS011;6085;49.452;8.502;2023-03-30T01:43:51;4.20;;;1.77;;
12048;SDS011;6085;49.452;8.502;2023-03-30T01:48:02;3.33;;;2.13;;
12048;SDS011;6085;49.452;8.502;2023-03-30T01:52:11;5.57;;;2.15;;
12048;SDS011;6085;49.452;8.502;2023-03-30T01:56:20;3.42;;;2.10;;
12048;SDS011;6085;49.452;8.502;2023-03-30T02:00:25;6.40;;;2.20;;
12048;SDS011;6085;49.452;8.502;2023-03-30T02:04:29;3.88;;;1.77;;
12048;SDS011;6085;49.452;8.502;2023-03-30T02:08:33;5.43;;;2.20;;
12048;SDS011;6085;49.452;8.502;2023-03-30T02:12:38;6.05;;;2.25;;
12048;SDS011;6085;49.452;8.502;2023-03-30T02:16:44;4.38;;;1.90;;
12048;SDS011;6085;49.452;8.502;2023-03-30T02:20:47;5.45;;;2.40;;
12048;SDS011;6085;49.452;8.502;2023-03-30T02:24:51;7.22;;;2.05;;
12048;SDS011;6085;49.452;8.502;2023-03-30T02:28:56;5.65;;;2.25;;
12048;SDS011;6085;49.452;8.502;2023-03-30T02:32:59;7.10;;;2.30;;
12048;SDS011;6085;49.452;8.502;2023-03-30T02:37:07;5.38;;;2.30;;
12048;SDS011;6085;49.452;8.502;2023-03-30T02:41:21;5.55;;;2.35;;
12048;SDS011;6085;49.452;8.502;2023-03-30T02:45:39;8.68;;;2.55;;
12048;SDS011;6085;49.452;8.502;2023-03-30T02:49:52;4.13;;;2.40;;
12048;SDS011;6085;49.452;8.502;2023-03-30T02:53:58;6.85;;;2.28;;
12048;SDS011;6085;49.452;8.502;2023-03-30T02:58:09;3.92;;;2.15;;
12048;SDS011;6085;49.452;8.502;2023-03-30T03:02:18;6.35;;;3.30;;
12048;SDS011;6085;49.452;8.502;2023-03-30T03:06:22;5.53;;;3.22;;
12048;SDS011;6085;49.452;8.502;2023-03-30T03:10:26;6.68;;;3.63;;
12048;SDS011;6085;49.452;8.502;2023-03-30T03:14:28;5.07;;;2.92;;
12048;SDS011;6085;49.452;8.502;2023-03-30T03:18:31;6.50;;;3.20;;
12048;SDS011;6085;49.452;8.502;2023-03-30T03:22:34;4.78;;;2.92;;
12048;SDS011;6085;49.452;8.502;2023-03-30T03:26:36;4.57;;;3.13;;
12048;SDS011;6085;49.452;8.502;2023-03-30T03:30:38;9.10;;;3.60;;
12048;SDS011;6085;49.452;8.502;2023-03-30T03:34:42;7.32;;;3.45;;
12048;SDS011;6085;49.452;8.502;2023-03-30T03:38:44;7.80;;;3.95;;
12048;SDS011;6085;49.452;8.502;2023-03-30T03:42:46;6.72;;;3.80;;
12048;SDS011;6085;49.452;8.502;2023-03-30T03:46:48;5.97;;;3.42;;
12048;SDS011;6085;49.452;8.502;2023-03-30T03:50:53;7.03;;;4.20;;
12048;SDS011;6085;49.452;8.502;2023-03-30T03:54:56;5.68;;;4.70;;
12048;SDS011;6085;49.452;8.502;2023-03-30T03:58:58;6.78;;;3.83;;
12048;SDS011;6085;49.452;8.502;2023-03-30T04:03:02;6.32;;;3.30;;
12048;SDS011;6085;49.452;8.502;2023-03-30T04:07:05;7.28;;;3.63;;
12048;SDS011;6085;49.452;8.502;2023-03-30T04:11:08;8.75;;;3.85;;
12048;SDS011;6085;49.452;8.502;2023-03-30T04:15:11;7.10;;;4.30;;
12048;SDS011;6085;49.452;8.502;2023-03-30T04:19:14;10.60;;;4.90;;
12048;SDS011;6085;49.452;8.502;2023-03-30T04:23:17;6.05;;;3.83;;
12048;SDS011;6085;49.452;8.502;2023-03-30T04:27:21;6.45;;;3.15;;
12048;SDS011;6085;49.452;8.502;2023-03-30T04:31:25;6.35;;;3.17;;
12048;SDS011;6085;49.452;8.502;2023-03-30T04:35:33;7.75;;;3.25;;
12048;SDS011;6085;49.452;8.502;2023-03-30T04:39:37;7.60;;;3.13;;
12048;SDS011;6085;49.452;8.502;2023-03-30T04:43:40;10.15;;;4.55;;
12048;SDS011;6085;49.452;8.502;2023-03-30T04:47:42;7.43;;;4.55;;
12048;SDS011;6085;49.452;8.502;2023-03-30T04:51:44;12.57;;;4.00;;
12048;SDS011;6085;49.452;8.502;2023-03-30T04:55:48;10.65;;;3.50;;
12048;SDS011;6085;49.452;8.502;2023-03-30T04:59:51;6.50;;;3.30;;
12048;SDS011;6085;49.452;8.502;2023-03-30T05:03:53;6.45;;;2.90;;
12048;SDS011;6085;49.452;8.502;2023-03-30T05:07:55;8.13;;;3.30;;
12048;SDS011;6085;49.452;8.502;2023-03-30T05:11:59;5.65;;;2.85;;
12048;SDS011;6085;49.452;8.502;2023-03-30T05:16:01;11.48;;;3.00;;
12048;SDS011;6085;49.452;8.502;2023-03-30T05:20:03;8.27;;;2.92;;
12048;SDS011;6085;49.452;8.502;2023-03-30T05:24:08;8.27;;;2.85;;
12048;SDS011;6085;49.452;8.502;2023-03-30T05:28:13;9.32;;;3.30;;
12048;SDS011;6085;49.452;8.502;2023-03-30T05:32:16;8.63;;;2.80;;
12048;SDS011;6085;49.452;8.502;2023-03-30T05:36:18;7.30;;;3.47;;
12048;SDS011;6085;49.452;8.502;2023-03-30T05:40:20;8.25;;;3.05;;
12048;SDS011;6085;49.452;8.502;2023-03-30T05:44:23;7.55;;;4.40;;
12048;SDS011;6085;49.452;8.502;2023-03-30T05:48:25;11.52;;;3.13;;
12048;SDS011;6085;49.452;8.502;2023-03-30T05:52:27;9.52;;;3.45;;
12048;SDS011;6085;49.452;8.502;2023-03-30T05:56:29;9.57;;;3.03;;
12048;SDS011;6085;49.452;8.502;2023-03-30T06:00:32;9.20;;;3.08;;
12048;SDS011;6085;49.452;8.502;2023-03-30T06:04:36;6.55;;;3.22;;
12048;SDS011;6085;49.452;8.502;2023-03-30T06:08:38;9.05;;;3.55;;
12048;SDS011;6085;49.452;8.502;2023-03-30T06:12:41;9.55;;;3.35;;
12048;SDS011;6085;49.452;8.502;2023-03-30T06:16:44;8.60;;;3.70;;
12048;SDS011;6085;49.452;8.502;2023-03-30T06:20:46;12.05;;;5.00;;
12048;SDS011;6085;49.452;8.502;2023-03-30T06:24:49;12.23;;;3.65;;
12048;SDS011;6085;49.452;8.502;2023-03-30T06:28:51;9.82;;;3.70;;
12048;SDS011;6085;49.452;8.502;2023-03-30T06:32:54;11.32;;;4.15;;
12048;SDS011;6085;49.452;8.502;2023-03-30T06:36:56;9.13;;;4.00;;
12048;SDS011;6085;49.452;8.502;2023-03-30T06:41:02;8.10;;;3.65;;
12048;SDS011;6085;49.452;8.502;2023-03-30T06:45:07;10.73;;;3.88;;
12048;SDS011;6085;49.452;8.502;2023-03-30T06:49:11;11.23;;;3.83;;
12048;SDS011;6085;49.452;8.502;2023-03-30T06:53:13;8.38;;;3.67;;
12048;SDS011;6085;49.452;8.502;2023-03-30T06:57:16;4.82;;;3.10;;
12048;SDS011;6085;49.452;8.502;2023-03-30T07:01:18;8.27;;;4.18;;
12048;SDS011;6085;49.452;8.502;2023-03-30T07:05:21;7.88;;;3.78;;
12048;SDS011;6085;49.452;8.502;2023-03-30T07:09:23;10.98;;;4.30;;
12048;SDS011;6085;49.452;8.502;2023-03-30T07:13:26;7.57;;;3.65;;
12048;SDS011;6085;49.452;8.502;2023-03-30T07:17:28;5.60;;;3.58;;
12048;SDS011;6085;49.452;8.502;2023-03-30T07:21:32;4.97;;;3.67;;
12048;SDS011;6085;49.452;8.502;2023-03-30T07:25:34;6.88;;;4.32;;
12048;SDS011;6085;49.452;8.502;2023-03-30T07:29:35;6.38;;;3.78;;
12048;SDS011;6085;49.452;8.502;2023-03-30T07:33:37;5.28;;;3.25;;
12048;SDS011;6085;49.452;8.502;2023-03-30T07:37:41;8.07;;;3.65;;
12048;SDS011;6085;49.452;8.502;2023-03-30T07:41:43;5.57;;;3.53;;
12048;SDS011;6085;49.452;8.502;2023-03-30T07:45:45;6.90;;;3.50;;
12048;SDS011;6085;49.452;8.502;2023-03-30T07:49:47;6.57;;;3.45;;
12048;SDS011;6085;49.452;8.502;2023-03-30T07:53:50;7.93;;;3.78;;
12048;SDS011;6085;49.452;8.502;2023-03-30T07:57:52;5.50;;;3.13;;
12048;SDS011;6085;49.452;8.502;2023-03-30T08:01:54;7.35;;;3.50;;
12048;SDS011;6085;49.452;8.502;2023-03-30T08:05:57;7.55;;;3.47;;
12048;SDS011;6085;49.452;8.502;2023-03-30T08:10:05;4.57;;;3.28;;
12048;SDS011;6085;49.452;8.502;2023-03-30T08:14:08;4.68;;;3.70;;
12048;SDS011;6085;49.452;8.502;2023-03-30T08:18:10;7.03;;;3.95;;
12048;SDS011;6085;49.452;8.502;2023-03-30T08:22:13;5.43;;;3.90;;
12048;SDS011;6085;49.452;8.502;2023-03-30T08:26:16;5.45;;;3.63;;
12048;SDS011;6085;49.452;8.502;2023-03-30T08:30:18;7.40;;;3.60;;
12048;SDS011;6085;49.452;8.502;2023-03-30T08:34:20;5.20;;;3.20;;
12048;SDS011;6085;49.452;8.502;2023-03-30T08:38:22;6.97;;;3.78;;
12048;SDS011;6085;49.452;8.502;2023-03-30T08:42:32;6.95;;;3.72;;
12048;SDS011;6085;49.452;8.502;2023-03-30T08:46:45;8.60;;;3.30;;
12048;SDS011;6085;49.452;8.502;2023-03-30T08:50:51;6.43;;;3.33;;
12048;SDS011;6085;49.452;8.502;2023-03-30T08:54:57;7.53;;;3.45;;
12048;SDS011;6085;49.452;8.502;2023-03-30T08:59:03;11.05;;;3.55;;
12048;SDS011;6085;49.452;8.502;2023-03-30T09:03:18;5.78;;;3.55;;
12048;SDS011;6085;49.452;8.502;2023-03-30T09:07:28;6.15;;;3.58;;
12048;SDS011;6085;49.452;8.502;2023-03-30T09:11:33;6.97;;;3.70;;
12048;SDS011;6085;49.452;8.502;2023-03-30T09:15:40;8.98;;;3.45;;
12048;SDS011;6085;49.452;8.502;2023-03-30T09:19:49;7.43;;;3.40;;
12048;SDS011;6085;49.452;8.502;2023-03-30T09:23:54;7.30;;;3.30;;
12048;SDS011;6085;49.452;8.502;2023-03-30T09:28:00;4.30;;;2.85;;
12048;SDS011;6085;49.452;8.502;2023-03-30T09:32:11;5.63;;;3.20;;
12048;SDS011;6085;49.452;8.502;2023-03-30T09:36:20;4.07;;;2.83;;
12048;SDS011;6085;49.452;8.502;2023-03-30T09:40:31;6.07;;;3.10;;
12048;SDS011;6085;49.452;8.502;2023-03-30T09:44:43;4.50;;;3.20;;
12048;SDS011;6085;49.452;8.502;2023-03-30T09:48:51;5.05;;;2.90;;
12048;SDS011;6085;49.452;8.502;2023-03-30T09:52:53;3.53;;;2.83;;
12048;SDS011;6085;49.452;8.502;2023-03-30T09:56:59;4.88;;;2.80;;
12048;SDS011;6085;49.452;8.502;2023-03-30T10:01:02;3.38;;;2.55;;
12048;SDS011;6085;49.452;8.502;2023-03-30T10:05:12;3.72;;;2.70;;
12048;SDS011;6085;49.452;8.502;2023-03-30T10:09:19;2.13;;;1.88;;
12048;SDS011;6085;49.452;8.502;2023-03-30T10:13:26;3.15;;;2.13;;
12048;SDS011;6085;49.452;8.502;2023-03-30T10:17:31;3.22;;;2.28;;
12048;SDS011;6085;49.452;8.502;2023-03-30T10:21:36;3.92;;;2.33;;
12048;SDS011;6085;49.452;8.502;2023-03-30T10:25:46;4.18;;;2.60;;
12048;SDS011;6085;49.452;8.502;2023-03-30T10:29:49;2.50;;;2.28;;
12048;SDS011;6085;49.452;8.502;2023-03-30T10:33:53;3.22;;;2.25;;
12048;SDS011;6085;49.452;8.502;2023-03-30T10:37:58;5.30;;;2.50;;
12048;SDS011;6085;49.452;8.502;2023-03-30T10:42:02;3.53;;;2.10;;
12048;SDS011;6085;49.452;8.502;2023-03-30T10:46:09;2.80;;;1.98;;
12048;SDS011;6085;49.452;8.502;2023-03-30T10:50:15;4.60;;;2.30;;
12048;SDS011;6085;49.452;8.502;2023-03-30T10:54:32;4.28;;;2.15;;
12048;SDS011;6085;49.452;8.502;2023-03-30T10:58:42;5.28;;;2.53;;
12048;SDS011;6085;49.452;8.502;2023-03-30T11:02:56;2.65;;;1.95;;
12048;SDS011;6085;49.452;8.502;2023-03-30T11:07:04;3.50;;;1.75;;
12048;SDS011;6085;49.452;8.502;2023-03-30T11:11:17;3.40;;;2.13;;
12048;SDS011;6085;49.452;8.502;2023-03-30T11:15:23;2.40;;;1.80;;
12048;SDS011;6085;49.452;8.502;2023-03-30T11:19:30;3.30;;;1.80;;
12048;SDS011;6085;49.452;8.502;2023-03-30T11:23:38;2.92;;;1.70;;
12048;SDS011;6085;49.452;8.502;2023-03-30T11:27:49;2.15;;;1.67;;
12048;SDS011;6085;49.452;8.502;2023-03-30T11:31:56;3.45;;;1.65;;
12048;SDS011;6085;49.452;8.502;2023-03-30T11:36:09;6.82;;;1.67;;
12048;SDS011;6085;49.452;8.502;2023-03-30T11:40:19;4.30;;;1.90;;
12048;SDS011;6085;49.452;8.502;2023-03-30T11:44:25;4.53;;;2.15;;
12048;SDS011;6085;49.452;8.502;2023-03-30T11:53:01;3.95;;;2.15;;
12048;SDS011;6085;49.452;8.502;2023-03-30T11:57:19;2.40;;;1.40;;
12048;SDS011;6085;49.452;8.502;2023-03-30T12:01:46;3.78;;;1.60;;
12048;SDS011;6085;49.452;8.502;2023-03-30T12:06:04;4.68;;;1.80;;
12048;SDS011;6085;49.452;8.502;2023-03-30T12:10:15;3.20;;;1.75;;
12048;SDS011;6085;49.452;8.502;2023-03-30T12:14:30;3.78;;;1.58;;
12048;SDS011;6085;49.452;8.502;2023-03-30T12:18:41;1.90;;;1.30;;
12048;SDS011;6085;49.452;8.502;2023-03-30T12:22:53;4.25;;;1.30;;
12048;SDS011;6085;49.452;8.502;2023-03-30T12:26:57;1.98;;;1.30;;
12048;SDS011;6085;49.452;8.502;2023-03-30T12:31:00;1.75;;;1.40;;
12048;SDS011;6085;49.452;8.502;2023-03-30T12:35:07;2.58;;;1.33;;
12048;SDS011;6085;49.452;8.502;2023-03-30T12:39:45;3.00;;;1.40;;
12048;SDS011;6085;49.452;8.502;2023-03-30T12:43:55;3.08;;;1.63;;
12048;SDS011;6085;49.452;8.502;2023-03-30T12:48:13;2.28;;;1.35;;
12048;SDS011;6085;49.452;8.502;2023-03-30T12:52:25;2.40;;;1.10;;
12048;SDS011;6085;49.452;8.502;2023-03-30T12:56:40;3.30;;;1.20;;
12048;SDS011;6085;49.452;8.502;2023-03-30T13:01:08;2.50;;;1.40;;
12048;SDS011;6085;49.452;8.502;2023-03-30T13:05:28;2.20;;;0.98;;
12048;SDS011;6085;49.452;8.502;2023-03-30T13:09:34;1.52;;;0.95;;
12048;SDS011;6085;49.452;8.502;2023-03-30T13:13:53;3.13;;;0.95;;
12048;SDS011;6085;49.452;8.502;2023-03-30T13:17:57;1.75;;;1.00;;
12048;SDS011;6085;49.452;8.502;2023-03-30T13:22:03;1.20;;;1.10;;
12048;SDS011;6085;49.452;8.502;2023-03-30T13:26:22;2.97;;;1.17;;
12048;SDS011;6085;49.452;8.502;2023-03-30T13:30:27;2.47;;;1.10;;
12048;SDS011;6085;49.452;8.502;2023-03-30T13:34:46;1.25;;;0.88;;
12048;SDS011;6085;49.452;8.502;2023-03-30T13:39:01;1.60;;;1.05;;
12048;SDS011;6085;49.452;8.502;2023-03-30T13:43:11;2.25;;;0.80;;
12048;SDS011;6085;49.452;8.502;2023-03-30T13:51:50;1.38;;;1.00;;
12048;SDS011;6085;49.452;8.502;2023-03-30T13:55:52;1.83;;;1.17;;
12048;SDS011;6085;49.452;8.502;2023-03-30T13:59:59;1.40;;;0.70;;
12048;SDS011;6085;49.452;8.502;2023-03-30T14:04:07;1.33;;;0.90;;
12048;SDS011;6085;49.452;8.502;2023-03-30T14:08:11;2.17;;;1.13;;
12048;SDS011;6085;49.452;8.502;2023-03-30T14:12:13;1.88;;;1.00;;
12048;SDS011;6085;49.452;8.502;2023-03-30T14:16:18;2.72;;;1.27;;
12048;SDS011;6085;49.452;8.502;2023-03-30T14:20:28;3.67;;;1.30;;
12048;SDS011;6085;49.452;8.502;2023-03-30T14:24:54;1.60;;;0.95;;
12048;SDS011;6085;49.452;8.502;2023-03-30T14:28:58;3.60;;;0.90;;
12048;SDS011;6085;49.452;8.502;2023-03-30T14:33:04;2.45;;;1.00;;
12048;SDS011;6085;49.452;8.502;2023-03-30T14:37:09;2.13;;;1.10;;
12048;SDS011;6085;49.452;8.502;2023-03-30T14:41:13;2.45;;;1.00;;
12048;SDS011;6085;49.452;8.502;2023-03-30T14:45:18;0.82;;;0.68;;
12048;SDS011;6085;49.452;8.502;2023-03-30T14:49:22;1.70;;;0.90;;
12048;SDS011;6085;49.452;8.502;2023-03-30T14:53:27;2.28;;;1.05;;
12048;SDS011;6085;49.452;8.502;2023-03-30T14:57:30;1.65;;;0.85;;
12048;SDS011;6085;49.452;8.502;2023-03-30T15:01:36;4.93;;;1.10;;
12048;SDS011;6085;49.452;8.502;2023-03-30T15:05:42;1.63;;;0.90;;
12048;SDS011;6085;49.452;8.502;2023-03-30T15:09:46;1.40;;;0.88;;
12048;SDS011;6085;49.452;8.502;2023-03-30T15:13:55;2.13;;;0.73;;
12048;SDS011;6085;49.452;8.502;2023-03-30T15:18:02;2.50;;;0.80;;
12048;SDS011;6085;49.452;8.502;2023-03-30T15:22:08;2.88;;;1.08;;
12048;SDS011;6085;49.452;8.502;2023-03-30T15:26:16;2.85;;;0.75;;
12048;SDS011;6085;49.452;8.502;2023-03-30T15:30:23;1.17;;;0.95;;
12048;SDS011;6085;49.452;8.502;2023-03-30T15:34:29;1.27;;;0.80;;
12048;SDS011;6085;49.452;8.502;2023-03-30T15:38:32;1.58;;;0.70;;
12048;SDS011;6085;49.452;8.502;2023-03-30T15:42:36;0.98;;;0.55;;
12048;SDS011;6085;49.452;8.502;2023-03-30T15:46:38;1.63;;;0.80;;
12048;SDS011;6085;49.452;8.502;2023-03-30T15:50:42;1.30;;;0.80;;
12048;SDS011;6085;49.452;8.502;2023-03-30T15:54:48;2.78;;;0.80;;
12048;SDS011;6085;49.452;8.502;2023-03-30T15:58:53;2.97;;;0.70;;
12048;SDS011;6085;49.452;8.502;2023-03-30T16:02:55;3.50;;;0.88;;
12048;SDS011;6085;49.452;8.502;2023-03-30T16:06:58;1.95;;;0.88;;
12048;SDS011;6085;49.452;8.502;2023-03-30T16:11:03;2.70;;;1.00;;
12048;SDS011;6085;49.452;8.502;2023-03-30T16:15:07;2.20;;;1.02;;
12048;SDS011;6085;49.452;8.502;2023-03-30T16:19:13;2.75;;;0.90;;
12048;SDS011;6085;49.452;8.502;2023-03-30T16:23:18;2.75;;;1.13;;
12048;SDS011;6085;49.452;8.502;2023-03-30T16:27:21;3.45;;;1.20;;
12048;SDS011;6085;49.452;8.502;2023-03-30T16:31:23;1.38;;;1.10;;
12048;SDS011;6085;49.452;8.502;2023-03-30T16:35:25;2.60;;;1.10;;
12048;SDS011;6085;49.452;8.502;2023-03-30T16:39:27;2.05;;;0.80;;
12048;SDS011;6085;49.452;8.502;2023-03-30T16:43:31;3.42;;;1.60;;
12048;SDS011;6085;49.452;8.502;2023-03-30T16:47:33;2.63;;;1.08;;
12048;SDS011;6085;49.452;8.502;2023-03-30T16:51:37;3.80;;;1.38;;
12048;SDS011;6085;49.452;8.502;2023-03-30T16:55:39;3.92;;;1.23;;
12048;SDS011;6085;49.452;8.502;2023-03-30T16:59:42;3.95;;;1.30;;
12048;SDS011;6085;49.452;8.502;2023-03-30T17:03:44;2.88;;;1.10;;
12048;SDS011;6085;49.452;8.502;2023-03-30T17:07:46;2.28;;;1.17;;
12048;SDS011;6085;49.452;8.502;2023-03-30T17:11:49;3.35;;;1.60;;
12048;SDS011;6085;49.452;8.502;2023-03-30T17:15:53;2.75;;;1.27;;
12048;SDS011;6085;49.452;8.502;2023-03-30T17:19:57;2.50;;;1.33;;
12048;SDS011;6085;49.452;8.502;2023-03-30T17:24:02;3.08;;;1.20;;
12048;SDS011;6085;49.452;8.502;2023-03-30T17:28:04;3.13;;;1.00;;
12048;SDS011;6085;49.452;8.502;2023-03-30T17:32:09;1.55;;;1.00;;
12048;SDS011;6085;49.452;8.502;2023-03-30T17:36:13;2.95;;;1.17;;
12048;SDS011;6085;49.452;8.502;2023-03-30T17:40:18;3.58;;;1.40;;
12048;SDS011;6085;49.452;8.502;2023-03-30T17:44:24;2.75;;;1.35;;
12048;SDS011;6085;49.452;8.502;2023-03-30T17:48:27;3.55;;;1.45;;
12048;SDS011;6085;49.452;8.502;2023-03-30T17:52:29;2.92;;;1.42;;
12048;SDS011;6085;49.452;8.502;2023-03-30T17:56:31;3.88;;;1.80;;
12048;SDS011;6085;49.452;8.502;2023-03-30T18:00:33;3.97;;;2.20;;
12048;SDS011;6085;49.452;8.502;2023-03-30T18:04:40;3.25;;;1.50;;
12048;SDS011;6085;49.452;8.502;2023-03-30T18:08:42;3.38;;;1.58;;
12048;SDS011;6085;49.452;8.502;2023-03-30T18:12:44;2.42;;;1.40;;
12048;SDS011;6085;49.452;8.502;2023-03-30T18:16:46;3.55;;;1.42;;
12048;SDS011;6085;49.452;8.502;2023-03-30T18:20:50;2.60;;;1.45;;
12048;SDS011;6085;49.452;8.502;2023-03-30T18:24:53;4.60;;;1.60;;
12048;SDS011;6085;49.452;8.502;2023-03-30T18:28:55;3.35;;;1.67;;
12048;SDS011;6085;49.452;8.502;2023-03-30T18:32:58;3.25;;;1.65;;
12048;SDS011;6085;49.452;8.502;2023-03-30T18:37:01;5.47;;;1.67;;
12048;SDS011;6085;49.452;8.502;2023-03-30T18:41:03;4.13;;;1.70;;
12048;SDS011;6085;49.452;8.502;2023-03-30T18:45:05;3.38;;;1.60;;
12048;SDS011;6085;49.452;8.502;2023-03-30T18:49:08;2.67;;;1.33;;
12048;SDS011;6085;49.452;8.502;2023-03-30T18:53:14;3.20;;;1.40;;
12048;SDS011;6085;49.452;8.502;2023-03-30T18:57:17;2.25;;;1.30;;
12048;SDS011;6085;49.452;8.502;2023-03-30T19:01:22;3.20;;;1.70;;
12048;SDS011;6085;49.452;8.502;2023-03-30T19:05:25;2.97;;;1.30;;
12048;SDS011;6085;49.452;8.502;2023-03-30T19:09:29;1.83;;;0.82;;
12048;SDS011;6085;49.452;8.502;2023-03-30T19:13:31;2.03;;;0.90;;
12048;SDS011;6085;49.452;8.502;2023-03-30T19:17:33;1.83;;;1.00;;
12048;SDS011;6085;49.452;8.502;2023-03-30T19:21:36;1.67;;;1.00;;
12048;SDS011;6085;49.452;8.502;2023-03-30T19:25:39;2.80;;;1.10;;
12048;SDS011;6085;49.452;8.502;2023-03-30T19:29:42;2.83;;;1.13;;
12048;SDS011;6085;49.452;8.502;2023-03-30T19:33:47;0.70;;;0.70;;
12048;SDS011;6085;49.452;8.502;2023-03-30T19:37:52;2.63;;;1.17;;
12048;SDS011;6085;49.452;8.502;2023-03-30T19:41:56;3.25;;;1.25;;
12048;SDS011;6085;49.452;8.502;2023-03-30T19:45:59;2.25;;;0.90;;
12048;SDS011;6085;49.452;8.502;2023-03-30T19:50:01;1.95;;;0.80;;
12048;SDS011;6085;49.452;8.502;2023-03-30T19:54:09;1.88;;;1.08;;
12048;SDS011;6085;49.452;8.502;2023-03-30T19:58:13;2.90;;;1.20;;
12048;SDS011;6085;49.452;8.502;2023-03-30T20:02:15;4.45;;;1.35;;
12048;SDS011;6085;49.452;8.502;2023-03-30T20:06:17;2.75;;;1.15;;
12048;SDS011;6085;49.452;8.502;2023-03-30T20:10:20;2.58;;;1.35;;
12048;SDS011;6085;49.452;8.502;2023-03-30T20:14:25;3.47;;;1.55;;
12048;SDS011;6085;49.452;8.502;2023-03-30T20:18:26;4.47;;;1.73;;
12048;SDS011;6085;49.452;8.502;2023-03-30T20:22:30;2.42;;;1.80;;
12048;SDS011;6085;49.452;8.502;2023-03-30T20:26:31;3.47;;;1.95;;
12048;SDS011;6085;49.452;8.502;2023-03-30T20:30:37;2.85;;;1.80;;
12048;SDS011;6085;49.452;8.502;2023-03-30T20:34:39;1.98;;;1.27;;
12048;SDS011;6085;49.452;8.502;2023-03-30T20:38:41;1.83;;;1.52;;
12048;SDS011;6085;49.452;8.502;2023-03-30T20:42:44;3.25;;;1.35;;
12048;SDS011;6085;49.452;8.502;2023-03-30T20:46:48;1.48;;;1.10;;
12048;SDS011;6085;49.452;8.502;2023-03-30T20:50:56;1.70;;;0.93;;
12048;SDS011;6085;49.452;8.502;2023-03-30T20:54:59;1.20;;;0.82;;
12048;SDS011;6085;49.452;8.502;2023-03-30T20:59:01;1.98;;;0.90;;
12048;SDS011;6085;49.452;8.502;2023-03-30T21:03:04;3.45;;;1.58;;
12048;SDS011;6085;49.452;8.502;2023-03-30T21:07:06;3.38;;;1.35;;
12048;SDS011;6085;49.452;8.502;2023-03-30T21:11:09;2.00;;;1.17;;
12048;SDS011;6085;49.452;8.502;2023-03-30T21:15:11;2.28;;;1.23;;
12048;SDS011;6085;49.452;8.502;2023-03-30T21:19:15;2.58;;;1.33;;
12048;SDS011;6085;49.452;8.502;2023-03-30T21:23:17;2.80;;;1.30;;
12048;SDS011;6085;49.452;8.502;2023-03-30T21:27:21;5.70;;;1.20;;
12048;SDS011;6085;49.452;8.502;2023-03-30T21:31:23;3.78;;;1.67;;
12048;SDS011;6085;49.452;8.502;2023-03-30T21:35:26;3.85;;;1.30;;
12048;SDS011;6085;49.452;8.502;2023-03-30T21:39:28;3.03;;;1.55;;
12048;SDS011;6085;49.452;8.502;2023-03-30T21:43:31;3.78;;;1.88;;
12048;SDS011;6085;49.452;8.502;2023-03-30T21:47:34;3.35;;;1.45;;
12048;SDS011;6085;49.452;8.502;2023-03-30T21:51:37;3.03;;;1.50;;
12048;SDS011;6085;49.452;8.502;2023-03-30T21:55:39;3.45;;;1.23;;
12048;SDS011;6085;49.452;8.502;2023-03-30T21:59:41;4.82;;;1.58;;
12048;SDS011;6085;49.452;8.502;2023-03-30T22:03:43;2.90;;;1.30;;
12048;SDS011;6085;49.452;8.502;2023-03-30T22:07:47;2.88;;;1.20;;
12048;SDS011;6085;49.452;8.502;2023-03-30T22:11:48;2.50;;;1.05;;
12048;SDS011;6085;49.452;8.502;2023-03-30T22:15:56;2.05;;;1.20;;
12048;SDS011;6085;49.452;8.502;2023-03-30T22:19:59;3.97;;;1.30;;
12048;SDS011;6085;49.452;8.502;2023-03-30T22:24:03;4.57;;;1.27;;
12048;SDS011;6085;49.452;8.502;2023-03-30T22:28:07;4.03;;;1.33;;
12048;SDS011;6085;49.452;8.502;2023-03-30T22:32:10;1.60;;;0.98;;
12048;SDS011;6085;49.452;8.502;2023-03-30T22:36:13;3.85;;;1.17;;
12048;SDS011;6085;49.452;8.502;2023-03-30T22:40:19;4.00;;;1.13;;
12048;SDS011;6085;49.452;8.502;2023-03-30T22:44:21;3.63;;;1.40;;
12048;SDS011;6085;49.452;8.502;2023-03-30T22:48:23;3.80;;;1.42;;
12048;SDS011;6085;49.452;8.502;2023-03-30T22:52:25;5.53;;;1.83;;
12048;SDS011;6085;49.452;8.502;2023-03-30T22:56:29;2.15;;;1.15;;
12048;SDS011;6085;49.452;8.502;2023-03-30T23:00:31;2.53;;;1.40;;
12048;SDS011;6085;49.452;8.502;2023-03-30T23:04:33;4.78;;;1.90;;
12048;SDS011;6085;49.452;8.502;2023-03-30T23:08:35;4.57;;;1.50;;
12048;SDS011;6085;49.452;8.502;2023-03-30T23:12:39;4.45;;;1.40;;
12048;SDS011;6085;49.452;8.502;2023-03-30T23:16:41;2.60;;;1.52;;
12048;SDS011;6085;49.452;8.502;2023-03-30T23:20:45;3.05;;;1.50;;
12048;SDS011;6085;49.452;8.502;2023-03-30T23:24:47;2.35;;;1.50;;
12048;SDS011;6085;49.452;8.502;2023-03-30T23:28:51;5.30;;;1.35;;
12048;SDS011;6085;49.452;8.502;2023-03-30T23:32:53;3.17;;;1.50;;
12048;SDS011;6085;49.452;8.502;2023-03-30T23:36:55;5.72;;;1.95;;
12048;SDS011;6085;49.452;8.502;2023-03-30T23:41:00;4.25;;;1.50;;
12048;SDS011;6085;49.452;8.502;2023-03-30T23:45:04;3.75;;;1.20;;
12048;SDS011;6085;49.452;8.502;2023-03-30T23:49:07;4.05;;;1.40;;
12048;SDS011;6085;49.452;8.502;2023-03-30T23:53:09;3.20;;;1.60;;
12048;SDS011;6085;49.452;8.502;2023-03-30T23:57:11;3.33;;;1.58;;
